sensor_id;sensor_type;location;lat;lon;timestamp;pressure;altitude;pressure_sealevel;temperature;humidity
11268;BME280;49397;47.474;9.416;2022-12-07T00:01:30;95404.06;;;2.66;97.29
11268;BME280;49397;47.474;9.416;2022-12-07T00:03:58;95396.31;;;2.64;97.31
11268;BME280;49397;47.474;9.416;2022-12-07T00:06:37;95389.31;;;2.58;97.38
11268;BME280;49397;47.474;9.416;2022-12-07T00:09:04;95388.50;;;2.53;97.78
11268;BME280;49397;47.474;9.416;2022-12-07T00:11:30;95387.66;;;2.47;98.77
11268;BME280;49397;47.474;9.416;2022-12-07T00:13:58;95390.63;;;2.51;99.32
11268;BME280;49397;47.474;9.416;2022-12-07T00:16:26;95382.63;;;2.56;98.58
11268;BME280;49397;47.474;9.416;2022-12-07T00:18:52;95378.03;;;2.46;98.46
11268;BME280;49397;47.474;9.416;2022-12-07T00:21:32;95377.22;;;2.46;98.17
11268;BME280;49397;47.474;9.416;2022-12-07T00:23:59;95389.28;;;2.43;99.43
11268;BME280;49397;47.474;9.416;2022-12-07T00:26:27;95385.50;;;2.39;99.31
11268;BME280;49397;47.474;9.416;2022-12-07T00:29:01;95388.72;;;2.41;98.95
11268;BME280;49397;47.474;9.416;2022-12-07T00:31:29;95391.91;;;2.38;98.27
11268;BME280;49397;47.474;9.416;2022-12-07T00:33:57;95387.88;;;2.31;98.73
11268;BME280;49397;47.474;9.416;2022-12-07T00:36:24;95386.03;;;2.41;97.92
11268;BME280;49397;47.474;9.416;2022-12-07T00:38:50;95386.03;;;2.41;97.15
11268;BME280;49397;47.474;9.416;2022-12-07T00:41:18;95386.81;;;2.37;96.61
11268;BME280;49397;47.474;9.416;2022-12-07T00:43:45;95382.53;;;2.36;96.53
11268;BME280;49397;47.474;9.416;2022-12-07T00:46:11;95384.94;;;2.37;96.55
11268;BME280;49397;47.474;9.416;2022-12-07T00:48:36;95380.66;;;2.36;96.26
11268;BME280;49397;47.474;9.416;2022-12-07T00:51:03;95380.13;;;2.39;96.15
11268;BME280;49397;47.474;9.416;2022-12-07T00:53:28;95366.44;;;2.26;96.92
11268;BME280;49397;47.474;9.416;2022-12-07T00:55:54;95384.41;;;2.35;96.89
11268;BME280;49397;47.474;9.416;2022-12-07T00:58:22;95388.13;;;2.34;96.72
11268;BME280;49397;47.474;9.416;2022-12-07T01:00:48;95380.41;;;2.38;96.64
11268;BME280;49397;47.474;9.416;2022-12-07T01:03:15;95378.19;;;2.25;96.92
11268;BME280;49397;47.474;9.416;2022-12-07T01:05:49;95390.03;;;2.34;96.79
11268;BME280;49397;47.474;9.416;2022-12-07T01:08:15;95383.59;;;2.35;96.38
11268;BME280;49397;47.474;9.416;2022-12-07T01:10:41;95383.31;;;2.31;96.14
11268;BME280;49397;47.474;9.416;2022-12-07T01:13:06;95376.53;;;2.14;96.73
11268;BME280;49397;47.474;9.416;2022-12-07T01:15:32;95386.47;;;2.23;95.77
11268;BME280;49397;47.474;9.416;2022-12-07T01:17:57;95393.47;;;2.24;95.58
11268;BME280;49397;47.474;9.416;2022-12-07T01:20:23;95377.84;;;2.11;95.61
11268;BME280;49397;47.474;9.416;2022-12-07T01:22:48;95395.06;;;2.25;94.88
11268;BME280;49397;47.474;9.416;2022-12-07T01:25:14;95393.19;;;2.26;94.52
11268;BME280;49397;47.474;9.416;2022-12-07T01:27:39;95390.78;;;2.24;95.05
11268;BME280;49397;47.474;9.416;2022-12-07T01:30:06;95388.66;;;2.31;95.27
11268;BME280;49397;47.474;9.416;2022-12-07T01:32:33;95388.94;;;2.35;95.37
11268;BME280;49397;47.474;9.416;2022-12-07T01:34:59;95391.84;;;2.28;95.75
11268;BME280;49397;47.474;9.416;2022-12-07T01:37:24;95393.19;;;2.26;95.92
11268;BME280;49397;47.474;9.416;2022-12-07T01:39:51;95388.59;;;2.16;96.51
11268;BME280;49397;47.474;9.416;2022-12-07T01:42:17;95389.72;;;2.25;96.33
11268;BME280;49397;47.474;9.416;2022-12-07T01:47:41;95395.66;;;2.32;96.21
11268;BME280;49397;47.474;9.416;2022-12-07T01:50:09;95390.56;;;2.36;96.07
11268;BME280;49397;47.474;9.416;2022-12-07T01:52:36;95383.28;;;2.26;96.12
11268;BME280;49397;47.474;9.416;2022-12-07T01:55:09;95387.59;;;2.27;96.11
11268;BME280;49397;47.474;9.416;2022-12-07T01:57:40;95384.31;;;2.20;97.03
11268;BME280;49397;47.474;9.416;2022-12-07T02:00:07;95399.66;;;2.35;97.43
11268;BME280;49397;47.474;9.416;2022-12-07T02:02:36;95399.94;;;2.38;97.19
11268;BME280;49397;47.474;9.416;2022-12-07T02:05:04;95394.00;;;2.31;96.61
11268;BME280;49397;47.474;9.416;2022-12-07T02:07:31;95391.63;;;2.35;96.12
11268;BME280;49397;47.474;9.416;2022-12-07T02:10:13;95389.25;;;2.38;96.30
11268;BME280;49397;47.474;9.416;2022-12-07T02:12:38;95379.31;;;2.34;95.88
11268;BME280;49397;47.474;9.416;2022-12-07T02:15:05;95388.97;;;2.40;96.17
11268;BME280;49397;47.474;9.416;2022-12-07T02:17:47;95388.72;;;2.41;96.11
11268;BME280;49397;47.474;9.416;2022-12-07T02:23:18;95383.91;;;2.48;96.45
11268;BME280;49397;47.474;9.416;2022-12-07T02:26:15;95374.81;;;2.44;96.59
11268;BME280;49397;47.474;9.416;2022-12-07T02:31:45;95375.94;;;2.58;96.85
11268;BME280;49397;47.474;9.416;2022-12-07T02:34:22;95364.66;;;2.46;97.68
11268;BME280;49397;47.474;9.416;2022-12-07T02:36:58;95369.75;;;2.48;98.38
11268;BME280;49397;47.474;9.416;2022-12-07T02:39:37;95379.13;;;2.50;97.74
11268;BME280;49397;47.474;9.416;2022-12-07T02:42:11;95375.38;;;2.46;98.05
11268;BME280;49397;47.474;9.416;2022-12-07T02:44:39;95379.34;;;2.44;98.46
11268;BME280;49397;47.474;9.416;2022-12-07T02:47:09;95369.94;;;2.36;98.53
11268;BME280;49397;47.474;9.416;2022-12-07T02:49:37;95360.31;;;2.35;98.93
11268;BME280;49397;47.474;9.416;2022-12-07T02:52:04;95367.81;;;2.38;99.07
11268;BME280;49397;47.474;9.416;2022-12-07T02:54:30;95372.09;;;2.39;98.91
11268;BME280;49397;47.474;9.416;2022-12-07T02:56:57;95378.03;;;2.46;98.71
11268;BME280;49397;47.474;9.416;2022-12-07T02:59:53;95365.97;;;2.44;98.45
11268;BME280;49397;47.474;9.416;2022-12-07T03:13:09;95375.06;;;2.43;99.09
11268;BME280;49397;47.474;9.416;2022-12-07T03:18:22;95367.81;;;2.38;99.85
11268;BME280;49397;47.474;9.416;2022-12-07T03:20:51;95374.78;;;2.39;99.92
11268;BME280;49397;47.474;9.416;2022-12-07T03:23:19;95371.06;;;2.45;100.00
11268;BME280;49397;47.474;9.416;2022-12-07T03:25:49;95362.19;;;2.35;100.00
11268;BME280;49397;47.474;9.416;2022-12-07T03:28:20;95368.63;;;2.39;100.00
11268;BME280;49397;47.474;9.416;2022-12-07T03:30:56;95366.00;;;2.49;99.79
11268;BME280;49397;47.474;9.416;2022-12-07T03:33:31;95363.31;;;2.49;99.77
11268;BME280;49397;47.474;9.416;2022-12-07T03:36:14;95365.19;;;2.48;100.00
11268;BME280;49397;47.474;9.416;2022-12-07T03:38:45;95371.09;;;2.50;100.00
11268;BME280;49397;47.474;9.416;2022-12-07T03:41:16;95363.88;;;2.56;100.00
11268;BME280;49397;47.474;9.416;2022-12-07T03:43:44;95366.81;;;2.59;100.00
11268;BME280;49397;47.474;9.416;2022-12-07T03:48:51;95368.44;;;2.55;100.00
11268;BME280;49397;47.474;9.416;2022-12-07T03:51:24;95359.84;;;2.53;100.00
11268;BME280;49397;47.474;9.416;2022-12-07T03:53:56;95367.59;;;2.45;100.00
11268;BME280;49397;47.474;9.416;2022-12-07T03:56:25;95371.59;;;2.47;100.00
11268;BME280;49397;47.474;9.416;2022-12-07T03:58:52;95367.31;;;2.41;100.00
11268;BME280;49397;47.474;9.416;2022-12-07T04:01:18;95368.63;;;2.39;100.00
11268;BME280;49397;47.474;9.416;2022-12-07T04:03:44;95364.13;;;2.49;100.00
11268;BME280;49397;47.474;9.416;2022-12-07T04:06:09;95365.75;;;2.55;100.00
11268;BME280;49397;47.474;9.416;2022-12-07T04:08:35;95357.66;;;2.45;100.00
11268;BME280;49397;47.474;9.416;2022-12-07T04:11:01;95369.75;;;2.48;100.00
11268;BME280;49397;47.474;9.416;2022-12-07T04:13:26;95373.19;;;2.38;100.00
11268;BME280;49397;47.474;9.416;2022-12-07T04:15:52;95370.50;;;2.38;100.00
11268;BME280;49397;47.474;9.416;2022-12-07T04:18:17;95359.47;;;2.30;99.56
11268;BME280;49397;47.474;9.416;2022-12-07T04:20:43;95375.84;;;2.38;99.90
11268;BME280;49397;47.474;9.416;2022-12-07T04:23:08;95373.72;;;2.40;99.66
11268;BME280;49397;47.474;9.416;2022-12-07T04:25:34;95374.25;;;2.42;99.38
11268;BME280;49397;47.474;9.416;2022-12-07T04:27:59;95373.19;;;2.38;99.06
11268;BME280;49397;47.474;9.416;2022-12-07T04:30:25;95369.94;;;2.31;99.21
11268;BME280;49397;47.474;9.416;2022-12-07T04:32:50;95376.38;;;2.35;99.91
11268;BME280;49397;47.474;9.416;2022-12-07T04:35:16;95376.91;;;2.37;99.43
11268;BME280;49397;47.474;9.416;2022-12-07T04:37:41;95372.63;;;2.36;100.00
11268;BME280;49397;47.474;9.416;2022-12-07T04:40:08;95374.78;;;2.39;100.00
11268;BME280;49397;47.474;9.416;2022-12-07T04:42:36;95367.81;;;2.33;100.00
11268;BME280;49397;47.474;9.416;2022-12-07T04:45:02;95376.91;;;2.37;100.00
11268;BME280;49397;47.474;9.416;2022-12-07T04:47:27;95366.47;;;2.31;100.00
11268;BME280;49397;47.474;9.416;2022-12-07T04:49:53;95373.22;;;2.43;100.00
11268;BME280;49397;47.474;9.416;2022-12-07T04:52:18;95379.59;;;2.37;100.00
11268;BME280;49397;47.474;9.416;2022-12-07T04:54:44;95377.19;;;2.41;99.77
11268;BME280;49397;47.474;9.416;2022-12-07T04:57:09;95376.69;;;2.44;100.00
11268;BME280;49397;47.474;9.416;2022-12-07T04:59:35;95377.72;;;2.38;100.00
11268;BME280;49397;47.474;9.416;2022-12-07T05:02:00;95384.16;;;2.37;100.00
11268;BME280;49397;47.474;9.416;2022-12-07T05:04:26;95380.91;;;2.30;100.00
11268;BME280;49397;47.474;9.416;2022-12-07T05:06:51;95378.47;;;2.28;100.00
11268;BME280;49397;47.474;9.416;2022-12-07T05:09:17;95381.47;;;2.37;100.00
11268;BME280;49397;47.474;9.416;2022-12-07T05:11:42;95382.56;;;2.41;100.00
11268;BME280;49397;47.474;9.416;2022-12-07T05:14:20;95385.50;;;2.39;100.00
11268;BME280;49397;47.474;9.416;2022-12-07T05:16:48;95380.66;;;2.36;100.00
11268;BME280;49397;47.474;9.416;2022-12-07T05:19:15;95378.78;;;2.37;100.00
11268;BME280;49397;47.474;9.416;2022-12-07T05:21:40;95384.41;;;2.40;100.00
11268;BME280;49397;47.474;9.416;2022-12-07T05:24:07;95380.94;;;2.40;100.00
11268;BME280;49397;47.474;9.416;2022-12-07T05:26:34;95369.75;;;2.48;100.00
11268;BME280;49397;47.474;9.416;2022-12-07T05:28:59;95379.06;;;2.40;100.00
11268;BME280;49397;47.474;9.416;2022-12-07T05:31:25;95368.88;;;2.37;100.00
11268;BME280;49397;47.474;9.416;2022-12-07T05:33:51;95379.03;;;2.30;100.00
11268;BME280;49397;47.474;9.416;2022-12-07T05:36:17;95366.44;;;2.26;100.00
11268;BME280;49397;47.474;9.416;2022-12-07T05:38:43;95365.31;;;2.22;100.00
11268;BME280;49397;47.474;9.416;2022-12-07T05:41:13;95374.97;;;2.28;100.00
11268;BME280;49397;47.474;9.416;2022-12-07T05:43:59;95373.13;;;2.28;100.00
11268;BME280;49397;47.474;9.416;2022-12-07T05:46:25;95374.72;;;2.29;100.00
11268;BME280;49397;47.474;9.416;2022-12-07T05:48:51;95377.69;;;2.33;100.00
11268;BME280;49397;47.474;9.416;2022-12-07T05:51:17;95366.69;;;2.24;100.00
11268;BME280;49397;47.474;9.416;2022-12-07T05:53:42;95377.72;;;2.38;100.00
11268;BME280;49397;47.474;9.416;2022-12-07T05:56:08;95376.09;;;2.32;100.00
11268;BME280;49397;47.474;9.416;2022-12-07T05:58:33;95380.63;;;2.31;100.00
11268;BME280;49397;47.474;9.416;2022-12-07T06:01:17;95374.22;;;2.32;100.00
11268;BME280;49397;47.474;9.416;2022-12-07T06:03:43;95384.94;;;2.32;100.00
11268;BME280;49397;47.474;9.416;2022-12-07T06:06:10;95382.25;;;2.37;100.00
11268;BME280;49397;47.474;9.416;2022-12-07T06:08:35;95379.88;;;2.41;100.00
11268;BME280;49397;47.474;9.416;2022-12-07T06:11:01;95387.66;;;2.42;100.00
11268;BME280;49397;47.474;9.416;2022-12-07T06:13:45;95388.44;;;2.38;100.00
11268;BME280;49397;47.474;9.416;2022-12-07T06:16:10;95391.91;;;2.33;100.00
11268;BME280;49397;47.474;9.416;2022-12-07T06:18:36;95388.94;;;2.35;100.00
11268;BME280;49397;47.474;9.416;2022-12-07T06:21:01;95388.16;;;2.39;100.00
11268;BME280;49397;47.474;9.416;2022-12-07T06:23:27;95394.34;;;2.40;100.00
11268;BME280;49397;47.474;9.416;2022-12-07T06:25:52;95393.53;;;2.39;100.00
11268;BME280;49397;47.474;9.416;2022-12-07T06:28:18;95395.91;;;2.31;100.00
11268;BME280;49397;47.474;9.416;2022-12-07T06:30:43;95384.66;;;2.29;100.00
11268;BME280;49397;47.474;9.416;2022-12-07T06:33:09;95393.47;;;2.29;100.00
11268;BME280;49397;47.474;9.416;2022-12-07T06:35:34;95392.16;;;2.32;100.00
11268;BME280;49397;47.474;9.416;2022-12-07T06:38:00;95404.72;;;2.31;100.00
11268;BME280;49397;47.474;9.416;2022-12-07T06:40:25;95394.53;;;2.28;100.00
11268;BME280;49397;47.474;9.416;2022-12-07T06:42:51;95396.13;;;2.29;100.00
11268;BME280;49397;47.474;9.416;2022-12-07T06:45:16;95395.91;;;2.31;100.00
11268;BME280;49397;47.474;9.416;2022-12-07T06:47:41;95399.06;;;2.28;100.00
11268;BME280;49397;47.474;9.416;2022-12-07T06:50:07;95402.03;;;2.31;100.00
11268;BME280;49397;47.474;9.416;2022-12-07T06:52:33;95395.66;;;2.32;100.00
11268;BME280;49397;47.474;9.416;2022-12-07T06:54:59;95389.22;;;2.33;100.00
11268;BME280;49397;47.474;9.416;2022-12-07T06:57:25;95384.91;;;2.27;100.00
11268;BME280;49397;47.474;9.416;2022-12-07T06:59:50;95388.91;;;2.30;100.00
11268;BME280;49397;47.474;9.416;2022-12-07T07:02:16;95404.19;;;2.34;100.00
11268;BME280;49397;47.474;9.416;2022-12-07T07:04:42;95395.63;;;2.27;100.00
11268;BME280;49397;47.474;9.416;2022-12-07T07:07:07;95398.88;;;2.39;100.00
11268;BME280;49397;47.474;9.416;2022-12-07T07:09:33;95403.44;;;2.44;100.00
11268;BME280;49397;47.474;9.416;2022-12-07T07:11:58;95399.97;;;2.43;100.00
11268;BME280;49397;47.474;9.416;2022-12-07T07:14:24;95384.94;;;2.32;100.00
11268;BME280;49397;47.474;9.416;2022-12-07T07:16:49;95397.81;;;2.45;100.00
11268;BME280;49397;47.474;9.416;2022-12-07T07:19:15;95410.16;;;2.51;100.00
11268;BME280;49397;47.474;9.416;2022-12-07T07:21:40;95400.75;;;2.39;100.00
11268;BME280;49397;47.474;9.416;2022-12-07T07:24:06;95411.19;;;2.40;100.00
11268;BME280;49397;47.474;9.416;2022-12-07T07:26:31;95400.22;;;2.37;100.00
11268;BME280;49397;47.474;9.416;2022-12-07T07:28:57;95399.72;;;2.45;100.00
11268;BME280;49397;47.474;9.416;2022-12-07T07:31:22;95393.03;;;2.47;100.00
11268;BME280;49397;47.474;9.416;2022-12-07T07:33:48;95406.72;;;2.56;100.00
11268;BME280;49397;47.474;9.416;2022-12-07T07:36:13;95408.31;;;2.52;100.00
11268;BME280;49397;47.474;9.416;2022-12-07T07:38:39;95401.88;;;2.48;100.00
11268;BME280;49397;47.474;9.416;2022-12-07T07:41:04;95406.97;;;2.49;100.00
11268;BME280;49397;47.474;9.416;2022-12-07T07:43:30;95409.66;;;2.54;100.00
11268;BME280;49397;47.474;9.416;2022-12-07T07:45:55;95406.22;;;2.64;100.00
11268;BME280;49397;47.474;9.416;2022-12-07T07:48:21;95403.84;;;2.72;100.00
11268;BME280;49397;47.474;9.416;2022-12-07T07:50:48;95411.59;;;2.69;100.00
11268;BME280;49397;47.474;9.416;2022-12-07T07:53:13;95415.56;;;2.61;100.00
11268;BME280;49397;47.474;9.416;2022-12-07T07:55:39;95404.31;;;2.54;100.00
11268;BME280;49397;47.474;9.416;2022-12-07T07:58:04;95423.63;;;2.66;100.00
11268;BME280;49397;47.474;9.416;2022-12-07T08:00:30;95411.56;;;2.59;100.00
11268;BME280;49397;47.474;9.416;2022-12-07T08:02:55;95412.59;;;2.58;100.00
11268;BME280;49397;47.474;9.416;2022-12-07T08:05:21;95413.41;;;2.53;100.00
11268;BME280;49397;47.474;9.416;2022-12-07T08:07:46;95417.41;;;2.51;100.00
11268;BME280;49397;47.474;9.416;2022-12-07T08:10:13;95419.03;;;2.57;100.00
11268;BME280;49397;47.474;9.416;2022-12-07T08:12:40;95420.88;;;2.51;100.00
11268;BME280;49397;47.474;9.416;2022-12-07T08:15:28;95411.50;;;2.49;100.00
11268;BME280;49397;47.474;9.416;2022-12-07T08:17:55;95420.09;;;2.51;100.00
11268;BME280;49397;47.474;9.416;2022-12-07T08:20:20;95415.81;;;2.55;100.00
11268;BME280;49397;47.474;9.416;2022-12-07T08:22:46;95415.56;;;2.61;100.00
11268;BME280;49397;47.474;9.416;2022-12-07T08:25:11;95418.81;;;2.63;100.00
11268;BME280;49397;47.474;9.416;2022-12-07T08:27:37;95423.59;;;2.61;100.00
11268;BME280;49397;47.474;9.416;2022-12-07T08:30:02;95422.28;;;2.59;100.00
11268;BME280;49397;47.474;9.416;2022-12-07T08:32:28;95426.28;;;2.61;100.00
11268;BME280;49397;47.474;9.416;2022-12-07T08:34:53;95420.38;;;2.59;100.00
11268;BME280;49397;47.474;9.416;2022-12-07T08:37:19;95422.78;;;2.61;100.00
11268;BME280;49397;47.474;9.416;2022-12-07T08:39:44;95427.66;;;2.64;100.00
11268;BME280;49397;47.474;9.416;2022-12-07T08:42:10;95424.97;;;2.69;100.00
11268;BME280;49397;47.474;9.416;2022-12-07T08:44:35;95424.72;;;2.70;100.00
11268;BME280;49397;47.474;9.416;2022-12-07T08:47:04;95422.84;;;2.71;100.00
11268;BME280;49397;47.474;9.416;2022-12-07T08:49:34;95426.34;;;2.71;100.00
11268;BME280;49397;47.474;9.416;2022-12-07T08:52:03;95423.13;;;2.74;100.00
11268;BME280;49397;47.474;9.416;2022-12-07T08:54:29;95422.91;;;2.81;100.00
11268;BME280;49397;47.474;9.416;2022-12-07T08:56:56;95426.09;;;2.83;100.00
11268;BME280;49397;47.474;9.416;2022-12-07T08:59:22;95408.97;;;2.79;100.00
11268;BME280;49397;47.474;9.416;2022-12-07T09:01:47;95415.38;;;2.83;100.00
11268;BME280;49397;47.474;9.416;2022-12-07T09:04:13;95427.50;;;2.90;100.00
11268;BME280;49397;47.474;9.416;2022-12-07T09:06:39;95422.13;;;2.90;100.00
11268;BME280;49397;47.474;9.416;2022-12-07T09:09:04;95423.47;;;2.93;100.00
11268;BME280;49397;47.474;9.416;2022-12-07T09:11:31;95416.22;;;2.88;100.00
11268;BME280;49397;47.474;9.416;2022-12-07T09:13:57;95418.41;;;2.96;100.00
11268;BME280;49397;47.474;9.416;2022-12-07T09:16:22;95427.78;;;2.94;100.00
11268;BME280;49397;47.474;9.416;2022-12-07T09:18:48;95427.50;;;2.95;99.77
11268;BME280;49397;47.474;9.416;2022-12-07T09:21:13;95435.28;;;3.02;100.00
11268;BME280;49397;47.474;9.416;2022-12-07T09:23:41;95433.94;;;2.99;100.00
11268;BME280;49397;47.474;9.416;2022-12-07T09:26:07;95432.84;;;3.00;100.00
11268;BME280;49397;47.474;9.416;2022-12-07T09:28:33;95428.28;;;2.96;100.00
11268;BME280;49397;47.474;9.416;2022-12-07T09:30:59;95428.53;;;2.89;100.00
11268;BME280;49397;47.474;9.416;2022-12-07T09:33:24;95436.34;;;3.01;100.00
11268;BME280;49397;47.474;9.416;2022-12-07T09:35:51;95437.47;;;3.15;100.00
11268;BME280;49397;47.474;9.416;2022-12-07T09:38:18;95435.88;;;3.14;100.00
11268;BME280;49397;47.474;9.416;2022-12-07T09:40:44;95440.16;;;3.15;100.00
11268;BME280;49397;47.474;9.416;2022-12-07T09:43:15;95441.50;;;3.18;100.00
11268;BME280;49397;47.474;9.416;2022-12-07T09:45:43;95435.31;;;3.12;100.00
11268;BME280;49397;47.474;9.416;2022-12-07T09:48:17;95433.44;;;3.13;100.00
11268;BME280;49397;47.474;9.416;2022-12-07T09:50:43;95422.72;;;3.07;100.00
11268;BME280;49397;47.474;9.416;2022-12-07T09:53:34;95438.00;;;3.17;100.00
11268;BME280;49397;47.474;9.416;2022-12-07T09:55:59;95418.16;;;3.08;98.20
11268;BME280;49397;47.474;9.416;2022-12-07T09:58:27;95433.19;;;3.19;98.42
11268;BME280;49397;47.474;9.416;2022-12-07T10:00:58;95431.59;;;3.23;99.67
11268;BME280;49397;47.474;9.416;2022-12-07T10:03:28;95434.00;;;3.25;98.92
11268;BME280;49397;47.474;9.416;2022-12-07T10:05:55;95420.59;;;3.15;98.84
11268;BME280;49397;47.474;9.416;2022-12-07T10:08:20;95426.75;;;3.20;99.72
11268;BME280;49397;47.474;9.416;2022-12-07T10:10:52;95421.69;;;3.29;99.56
11268;BME280;49397;47.474;9.416;2022-12-07T10:13:22;95414.44;;;3.19;99.14
11268;BME280;49397;47.474;9.416;2022-12-07T10:15:58;95398.59;;;3.07;99.71
11268;BME280;49397;47.474;9.416;2022-12-07T10:18:38;95399.94;;;3.15;98.70
11268;BME280;49397;47.474;9.416;2022-12-07T10:21:15;95404.25;;;3.16;98.88
11268;BME280;49397;47.474;9.416;2022-12-07T10:24:05;95394.59;;;3.20;99.29
11268;BME280;49397;47.474;9.416;2022-12-07T10:26:49;95398.63;;;3.18;98.96
11268;BME280;49397;47.474;9.416;2022-12-07T10:29:23;95391.63;;;3.11;99.07
11268;BME280;49397;47.474;9.416;2022-12-07T10:31:56;95394.31;;;3.17;99.03
11268;BME280;49397;47.474;9.416;2022-12-07T10:34:29;95398.09;;;3.21;98.61
11268;BME280;49397;47.474;9.416;2022-12-07T10:42:24;95382.50;;;3.07;97.92
11268;BME280;49397;47.474;9.416;2022-12-07T10:45:07;95385.75;;;3.15;98.88
11268;BME280;49397;47.474;9.416;2022-12-07T10:56:40;95361.38;;;3.41;98.12
11268;BME280;49397;47.474;9.416;2022-12-07T11:02:50;95361.91;;;3.33;97.52
11268;BME280;49397;47.474;9.416;2022-12-07T11:13:27;95358.13;;;3.09;97.71
11268;BME280;49397;47.474;9.416;2022-12-07T11:19:06;95351.16;;;3.18;99.45
11268;BME280;49397;47.474;9.416;2022-12-07T11:21:43;95347.94;;;3.26;100.00
11268;BME280;49397;47.474;9.416;2022-12-07T11:24:15;95347.16;;;3.26;100.00
11268;BME280;49397;47.474;9.416;2022-12-07T11:27:01;95342.03;;;3.24;100.00
11268;BME280;49397;47.474;9.416;2022-12-07T11:29:48;95339.66;;;3.28;100.00
11268;BME280;49397;47.474;9.416;2022-12-07T11:37:30;95332.66;;;3.01;100.00
11268;BME280;49397;47.474;9.416;2022-12-07T11:40:02;95333.44;;;3.02;100.00
11268;BME280;49397;47.474;9.416;2022-12-07T11:42:33;95333.72;;;3.05;100.00
11268;BME280;49397;47.474;9.416;2022-12-07T11:45:31;95331.88;;;3.06;100.00
11268;BME280;49397;47.474;9.416;2022-12-07T11:50:50;95321.97;;;3.06;100.00
11268;BME280;49397;47.474;9.416;2022-12-07T11:53:52;95314.69;;;3.02;100.00
11268;BME280;49397;47.474;9.416;2022-12-07T11:56:24;95317.13;;;2.98;100.00
11268;BME280;49397;47.474;9.416;2022-12-07T11:59:02;95317.38;;;3.12;100.00
11268;BME280;49397;47.474;9.416;2022-12-07T12:01:44;95307.72;;;3.01;100.00
11268;BME280;49397;47.474;9.416;2022-12-07T12:04:23;95311.22;;;3.01;99.92
11268;BME280;49397;47.474;9.416;2022-12-07T12:06:52;95297.56;;;2.98;100.00
11268;BME280;49397;47.474;9.416;2022-12-07T12:09:40;95295.66;;;3.03;100.00
11268;BME280;49397;47.474;9.416;2022-12-07T12:23:16;95295.16;;;3.01;100.00
11268;BME280;49397;47.474;9.416;2022-12-07T12:25:55;95291.41;;;3.07;99.45
11268;BME280;49397;47.474;9.416;2022-12-07T12:33:31;95287.09;;;3.17;99.47
11268;BME280;49397;47.474;9.416;2022-12-07T12:36:19;95290.59;;;3.07;99.50
11268;BME280;49397;47.474;9.416;2022-12-07T12:44:02;95281.47;;;3.13;98.73
11268;BME280;49397;47.474;9.416;2022-12-07T12:48:55;95273.69;;;2.91;97.87
11268;BME280;49397;47.474;9.416;2022-12-07T12:51:38;95289.50;;;3.13;98.86
11268;BME280;49397;47.474;9.416;2022-12-07T12:54:12;95278.25;;;3.06;98.87
11268;BME280;49397;47.474;9.416;2022-12-07T12:56:46;95286.03;;;3.13;98.93
11268;BME280;49397;47.474;9.416;2022-12-07T13:01:47;95274.78;;;3.10;97.59
11268;BME280;49397;47.474;9.416;2022-12-07T13:04:48;95272.63;;;3.13;98.10
11268;BME280;49397;47.474;9.416;2022-12-07T13:18:23;95268.63;;;3.05;98.61
11268;BME280;49397;47.474;9.416;2022-12-07T13:23:22;95249.03;;;3.30;97.98
11268;BME280;49397;47.474;9.416;2022-12-07T13:29:30;95258.69;;;3.36;96.86
11268;BME280;49397;47.474;9.416;2022-12-07T13:31:45;95250.09;;;3.39;97.39
11268;BME280;49397;47.474;9.416;2022-12-07T13:36:57;95258.41;;;3.52;96.83
11268;BME280;49397;47.474;9.416;2022-12-07T13:39:25;95244.19;;;3.47;96.52
11268;BME280;49397;47.474;9.416;2022-12-07T13:41:53;95242.59;;;3.46;96.70
11268;BME280;49397;47.474;9.416;2022-12-07T13:44:20;95236.41;;;3.45;95.99
11268;BME280;49397;47.474;9.416;2022-12-07T13:46:54;95234.53;;;3.51;95.66
11268;BME280;49397;47.474;9.416;2022-12-07T13:49:26;95237.50;;;3.49;95.49
11268;BME280;49397;47.474;9.416;2022-12-07T13:51:53;95229.97;;;3.51;95.45
11268;BME280;49397;47.474;9.416;2022-12-07T13:54:19;95227.28;;;3.56;95.45
11268;BME280;49397;47.474;9.416;2022-12-07T13:56:52;95231.81;;;3.61;95.41
11268;BME280;49397;47.474;9.416;2022-12-07T13:59:19;95226.97;;;3.68;94.71
11268;BME280;49397;47.474;9.416;2022-12-07T14:01:47;95228.09;;;3.57;94.83
11268;BME280;49397;47.474;9.416;2022-12-07T14:04:33;95227.53;;;3.65;94.69
11268;BME280;49397;47.474;9.416;2022-12-07T14:07:01;95217.34;;;3.57;94.87
11268;BME280;49397;47.474;9.416;2022-12-07T14:09:29;95210.91;;;3.58;95.68
11268;BME280;49397;47.474;9.416;2022-12-07T14:11:56;95217.31;;;3.67;94.40
11268;BME280;49397;47.474;9.416;2022-12-07T14:14:29;95208.75;;;3.65;94.88
11268;BME280;49397;47.474;9.416;2022-12-07T14:19:53;95218.69;;;3.64;93.87
11268;BME280;49397;47.474;9.416;2022-12-07T14:22:32;95210.34;;;3.71;94.60
11268;BME280;49397;47.474;9.416;2022-12-07T14:25:20;95217.56;;;3.75;94.76
11268;BME280;49397;47.474;9.416;2022-12-07T14:28:01;95218.63;;;3.79;95.30
11268;BME280;49397;47.474;9.416;2022-12-07T14:30:29;95218.38;;;3.81;95.74
11268;BME280;49397;47.474;9.416;2022-12-07T14:33:00;95212.97;;;3.86;94.41
11268;BME280;49397;47.474;9.416;2022-12-07T14:35:27;95217.28;;;3.77;94.70
11268;BME280;49397;47.474;9.416;2022-12-07T14:37:53;95216.25;;;3.68;93.82
11268;BME280;49397;47.474;9.416;2022-12-07T14:40:24;95213.03;;;3.71;94.59
11268;BME280;49397;47.474;9.416;2022-12-07T14:43:05;95222.66;;;3.77;94.39
11268;BME280;49397;47.474;9.416;2022-12-07T14:45:32;95224.03;;;3.74;95.12
11268;BME280;49397;47.474;9.416;2022-12-07T14:47:57;95219.69;;;3.78;96.38
11268;BME280;49397;47.474;9.416;2022-12-07T14:50:23;95207.94;;;3.64;95.98
11268;BME280;49397;47.474;9.416;2022-12-07T14:52:55;95218.94;;;3.73;96.13
11268;BME280;49397;47.474;9.416;2022-12-07T14:55:29;95217.38;;;3.52;94.19
11268;BME280;49397;47.474;9.416;2022-12-07T14:57:55;95219.78;;;3.53;95.30
11268;BME280;49397;47.474;9.416;2022-12-07T15:00:23;95218.47;;;3.46;95.71
11268;BME280;49397;47.474;9.416;2022-12-07T15:02:50;95225.41;;;3.42;96.00
11268;BME280;49397;47.474;9.416;2022-12-07T15:05:16;95216.59;;;3.36;96.25
11268;BME280;49397;47.474;9.416;2022-12-07T15:07:43;95200.50;;;3.31;96.59